Time;durP1;ratioP1;P1;durP2;ratioP2;P2;SDS_P1;SDS_P2;PMS_P1;PMS_P2;Temp;Humidity;BMP_temperature;BMP_pressure;BME280_temperature;BME280_humidity;BME280_pressure;Samples;Min_cycle;Max_cycle;Signal;HPM_P1;HPM_P2
2021/11/09 00:02:23;;;;;;;34.00;18.15;;;;;;;7.69;100.00;99806.11;4187009;82;28576;-84
2021/11/09 00:08:26;;;;;;;31.42;16.95;;;;;;;7.69;100.00;99814.14;4225125;82;28606;-86
2021/11/09 00:14:30;;;;;;;34.65;17.95;;;;;;;7.70;100.00;99814.95;4232694;82;28520;-85
2021/11/09 00:20:36;;;;;;;35.63;18.25;;;;;;;7.65;100.00;99821.72;4234564;82;28505;-84
2021/11/09 00:26:38;;;;;;;35.13;17.35;;;;;;;7.64;100.00;99828.59;4250769;82;28453;-83
2021/11/09 00:32:43;;;;;;;32.23;16.42;;;;;;;7.54;100.00;99828.40;4225839;82;28487;-83
2021/11/09 00:38:45;;;;;;;28.30;16.05;;;;;;;7.51;100.00;99828.80;4227890;82;28502;-84
2021/11/09 00:44:46;;;;;;;30.02;15.72;;;;;;;7.60;100.00;99838.03;4219438;82;28464;-84
2021/11/09 00:50:50;;;;;;;29.65;15.70;;;;;;;7.61;100.00;99835.67;4250796;82;28503;-84
2021/11/09 00:56:51;;;;;;;30.37;16.17;;;;;;;7.63;100.00;99841.66;4241586;82;28548;-83
2021/11/09 01:02:53;;;;;;;30.68;15.72;;;;;;;7.63;100.00;99835.81;4217656;82;28479;-81
2021/11/09 01:08:54;;;;;;;28.25;15.03;;;;;;;7.54;100.00;99836.43;4228239;82;28511;-84
2021/11/09 01:14:57;;;;;;;30.25;15.88;;;;;;;7.61;100.00;99828.48;4191032;82;28477;-85
2021/11/09 01:20:59;;;;;;;28.35;15.68;;;;;;;7.56;100.00;99832.23;4220510;82;28494;-83
2021/11/09 01:27:01;;;;;;;31.55;16.40;;;;;;;7.63;100.00;99838.98;4240166;82;28466;-82
2021/11/09 01:33:04;;;;;;;33.00;16.60;;;;;;;7.59;100.00;99835.86;4210662;83;28744;-84
2021/11/09 01:39:07;;;;;;;31.00;15.95;;;;;;;7.57;100.00;99841.92;4255936;82;28452;-82
2021/11/09 01:45:13;;;;;;;30.62;15.65;;;;;;;7.52;100.00;99847.84;4247291;82;28505;-82
2021/11/09 01:51:18;;;;;;;28.60;15.17;;;;;;;7.49;100.00;99846.89;4249261;82;28491;-81
2021/11/09 01:57:19;;;;;;;29.82;16.93;;;;;;;7.60;100.00;99846.91;4206826;82;28456;-81
2021/11/09 02:03:23;;;;;;;31.90;17.20;;;;;;;7.59;100.00;99854.59;4227841;82;28871;-83
2021/11/09 02:09:25;;;;;;;29.80;15.30;;;;;;;7.58;100.00;99866.84;4254558;82;28488;-83
2021/11/09 02:15:30;;;;;;;26.12;14.78;;;;;;;7.53;100.00;99867.41;4254507;82;28487;-82
2021/11/09 02:21:32;;;;;;;24.70;13.88;;;;;;;7.59;100.00;99869.31;4270133;82;28486;-83
2021/11/09 02:27:34;;;;;;;30.68;17.25;;;;;;;7.65;100.00;99866.38;4236868;82;28466;-84
2021/11/09 02:33:37;;;;;;;32.15;17.12;;;;;;;7.68;100.00;99872.70;4222288;82;28458;-84
2021/11/09 02:39:39;;;;;;;28.90;15.65;;;;;;;7.64;100.00;99878.11;4252021;82;28514;-84
2021/11/09 02:45:53;;;;;;;26.15;15.30;;;;;;;7.56;100.00;99882.27;4262498;82;28514;-84
2021/11/09 02:51:57;;;;;;;24.43;14.20;;;;;;;7.61;100.00;99891.88;4228186;82;28458;-83
2021/11/09 03:04:32;;;;;;;29.60;15.98;;;;;;;7.57;100.00;99883.92;4252904;83;28479;-86
2021/11/09 03:10:33;;;;;;;26.23;13.65;;;;;;;7.58;100.00;99891.73;4189526;83;28522;-86
2021/11/09 03:16:36;;;;;;;22.05;12.45;;;;;;;7.57;100.00;99908.01;4203131;82;28476;-84
2021/11/09 03:48:05;;;;;;;22.32;11.90;;;;;;;7.50;100.00;99940.86;4187406;83;28587;-83
2021/11/09 03:54:12;;;;;;;21.42;12.07;;;;;;;7.53;100.00;99949.03;4216235;83;28476;-83
2021/11/09 04:00:33;;;;;;;22.50;12.78;;;;;;;7.58;100.00;99952.48;4224302;83;28514;-85
2021/11/09 04:06:38;;;;;;;21.33;12.45;;;;;;;7.56;100.00;99957.20;4169125;84;28500;-84
2021/11/09 04:12:55;;;;;;;22.42;12.53;;;;;;;7.49;100.00;99962.45;4146605;84;28460;-83
2021/11/09 04:31:33;;;;;;;21.73;12.68;;;;;;;7.49;100.00;99964.63;4169783;84;28504;-82
2021/11/09 05:14:18;;;;;;;26.02;14.38;;;;;;;7.53;100.00;100008.72;4240547;84;28454;-83
2021/11/09 05:20:20;;;;;;;23.50;13.25;;;;;;;7.54;100.00;100015.73;4247310;83;28506;-84
2021/11/09 05:26:21;;;;;;;22.20;12.45;;;;;;;7.50;100.00;100024.34;4210215;83;28531;-85
2021/11/09 05:32:24;;;;;;;27.05;13.80;;;;;;;7.50;100.00;100037.20;4259501;82;28578;-84
2021/11/09 05:38:32;;;;;;;23.20;12.78;;;;;;;7.51;100.00;100042.88;4265813;82;28507;-84
2021/11/09 05:44:31;;;;;;;24.35;13.10;;;;;;;7.53;100.00;100057.41;4252485;83;28541;-83
2021/11/09 05:50:33;;;;;;;25.72;14.03;;;;;;;7.54;100.00;100063.90;4184972;83;28541;-84
2021/11/09 05:56:34;;;;;;;22.77;12.65;;;;;;;7.48;100.00;100079.38;4216758;83;28486;-84
2021/11/09 06:02:36;;;;;;;19.37;11.38;;;;;;;7.57;100.00;100095.34;4241314;82;28539;-84
2021/11/09 06:08:37;;;;;;;18.70;11.40;;;;;;;7.62;100.00;100110.33;4186487;83;28472;-87
2021/11/09 06:14:41;;;;;;;22.52;11.97;;;;;;;7.71;100.00;100124.47;4205473;82;28503;-87
2021/11/09 06:20:42;;;;;;;21.20;12.70;;;;;;;7.59;100.00;100130.78;4245233;82;28505;-86
2021/11/09 06:26:45;;;;;;;23.22;12.68;;;;;;;7.67;100.00;100141.40;4212200;82;28488;-85
2021/11/09 06:32:47;;;;;;;22.15;13.55;;;;;;;7.63;100.00;100158.33;4178950;82;28471;-81
2021/11/09 06:38:49;;;;;;;22.93;13.93;;;;;;;7.66;100.00;100165.98;4213258;83;28482;-86
2021/11/09 06:44:50;;;;;;;23.83;13.43;;;;;;;7.67;100.00;100180.21;4224799;82;28507;-83
2021/11/09 06:50:53;;;;;;;24.98;16.40;;;;;;;7.83;100.00;100207.80;4223720;82;28464;-83
2021/11/09 06:56:55;;;;;;;27.13;16.30;;;;;;;7.84;100.00;100228.20;4231465;82;28526;-80
2021/11/09 07:02:57;;;;;;;25.50;14.83;;;;;;;7.88;100.00;100234.35;4231194;82;28541;-79
2021/11/09 07:08:58;;;;;;;23.52;14.33;;;;;;;7.80;100.00;100255.84;4232894;82;28487;-82
2021/11/09 07:15:00;;;;;;;23.42;14.07;;;;;;;7.97;100.00;100269.09;4247137;83;28545;-80
2021/11/09 07:21:02;;;;;;;24.30;14.58;;;;;;;7.99;100.00;100282.62;4254166;83;28445;-83
2021/11/09 07:27:04;;;;;;;28.70;15.25;;;;;;;8.03;100.00;100286.59;4281033;82;28466;-83
2021/11/09 07:33:05;;;;;;;29.77;16.87;;;;;;;8.06;100.00;100292.09;4307924;82;28523;-87
2021/11/09 07:39:07;;;;;;;24.85;14.68;;;;;;;8.08;100.00;100292.73;4260416;82;28528;-92
2021/11/09 07:45:08;;;;;;;28.67;15.68;;;;;;;8.00;100.00;100303.03;4238034;82;28511;-84
2021/11/09 07:51:10;;;;;;;24.55;13.90;;;;;;;8.00;100.00;100317.77;4214789;82;28499;-86
2021/11/09 07:57:14;;;;;;;32.40;17.20;;;;;;;7.99;100.00;100327.31;4200054;82;28488;-87
2021/11/09 08:03:18;;;;;;;27.42;15.78;;;;;;;7.97;100.00;100335.55;4237881;82;28511;-84
2021/11/09 08:09:28;;;;;;;25.60;14.20;;;;;;;8.05;100.00;100339.46;4219582;82;28461;-88
2021/11/09 08:15:32;;;;;;;24.67;13.25;;;;;;;8.13;100.00;100341.74;4249744;82;28518;-91
2021/11/09 08:21:36;;;;;;;29.20;16.45;;;;;;;8.16;100.00;100342.70;4233901;82;28538;-90
2021/11/09 08:27:37;;;;;;;32.53;16.77;;;;;;;8.18;100.00;100360.27;4217022;82;28552;-88
2021/11/09 08:33:39;;;;;;;26.27;13.55;;;;;;;8.23;100.00;100370.44;4231008;82;28465;-88
2021/11/09 08:39:42;;;;;;;30.00;14.45;;;;;;;8.43;100.00;100375.27;4231013;82;28721;-84
2021/11/09 08:45:52;;;;;;;27.50;13.93;;;;;;;8.63;100.00;100384.95;4213940;82;28468;-85
2021/11/09 08:51:50;;;;;;;24.30;14.53;;;;;;;8.75;100.00;100392.87;4190924;82;28482;-83
2021/11/09 09:10:14;;;;;;;25.08;13.40;;;;;;;8.99;100.00;100420.41;4335650;82;28503;-85
2021/11/09 09:16:16;;;;;;;28.67;15.03;;;;;;;9.12;100.00;100433.17;4335714;82;28472;-87
2021/11/09 09:22:22;;;;;;;26.82;15.53;;;;;;;9.17;100.00;100441.47;4304166;82;28537;-85
2021/11/09 09:59:52;;;;;;;21.20;11.95;;;;;;;9.82;100.00;100477.52;4226602;84;28460;-81
2021/11/09 10:05:55;;;;;;;16.45;10.05;;;;;;;10.04;100.00;100473.80;4210843;83;28523;-84
2021/11/09 10:11:57;;;;;;;18.37;9.73;;;;;;;9.85;100.00;100476.63;4117930;84;28527;-85
2021/11/09 10:18:03;;;;;;;20.00;10.88;;;;;;;9.95;100.00;100486.23;4075255;86;28468;-87
2021/11/09 10:24:27;;;;;;;16.25;10.05;;;;;;;9.94;100.00;100492.10;4104097;84;28504;-86
2021/11/09 10:30:34;;;;;;;17.92;9.83;;;;;;;9.97;100.00;100502.48;4094103;86;28452;-80
2021/11/09 10:36:35;;;;;;;15.53;9.23;;;;;;;10.19;100.00;100507.33;4068719;85;28553;-83
2021/11/09 10:42:44;;;;;;;20.45;11.15;;;;;;;10.19;100.00;100504.64;4127634;85;28468;-79
2021/11/09 10:48:46;;;;;;;19.30;11.12;;;;;;;10.15;100.00;100522.19;4127376;85;28577;-81
2021/11/09 10:55:03;;;;;;;23.42;12.05;;;;;;;10.05;100.00;100528.39;4127881;86;28476;-83
2021/11/09 11:07:11;;;;;;;22.60;12.47;;;;;;;9.97;100.00;100534.73;4039461;86;28488;-78
2021/11/09 11:13:23;;;;;;;25.43;13.18;;;;;;;9.90;100.00;100541.38;4150025;84;28584;-82
2021/11/09 11:19:28;;;;;;;20.77;11.53;;;;;;;9.86;100.00;100548.66;4161627;85;28455;-82
2021/11/09 11:25:30;;;;;;;19.60;11.33;;;;;;;9.90;100.00;100552.62;4149751;85;28537;-85
2021/11/09 11:31:31;;;;;;;22.13;11.78;;;;;;;10.01;100.00;100552.66;4142206;84;28558;-89
2021/11/09 11:37:33;;;;;;;25.00;12.45;;;;;;;9.85;100.00;100569.30;4165575;83;28537;-83
2021/11/09 11:43:50;;;;;;;24.10;12.07;;;;;;;9.88;100.00;100579.66;4157385;85;28540;-82
2021/11/09 11:50:01;;;;;;;23.07;10.88;;;;;;;9.85;100.00;100571.99;4180540;83;28517;-87
2021/11/09 11:56:03;;;;;;;19.90;10.43;;;;;;;9.89;100.00;100571.95;4175246;83;28450;-84
2021/11/09 12:02:08;;;;;;;21.30;11.38;;;;;;;10.02;100.00;100579.84;4117986;84;28482;-81
2021/11/09 12:08:15;;;;;;;19.62;11.85;;;;;;;10.04;100.00;100573.76;4201299;84;28476;-81
2021/11/09 12:14:17;;;;;;;20.97;11.20;;;;;;;10.19;100.00;100567.81;4252839;83;28540;-78
2021/11/09 12:20:22;;;;;;;20.55;10.72;;;;;;;10.18;100.00;100569.36;4261196;83;28534;-78
2021/11/09 12:26:51;;;;;;;18.70;11.18;;;;;;;10.21;100.00;100573.00;4259178;83;28487;-79
2021/11/09 12:33:03;;;;;;;21.37;11.15;;;;;;;10.01;100.00;100570.12;4231492;83;28537;-78
2021/11/09 12:39:09;;;;;;;20.27;11.25;;;;;;;10.03;100.00;100576.13;4266793;83;28511;-79
2021/11/09 12:45:13;;;;;;;17.50;9.70;;;;;;;10.14;100.00;100577.47;4243011;83;28505;-79
2021/11/09 12:51:19;;;;;;;18.42;9.25;;;;;;;10.16;100.00;100576.80;4252899;83;28514;-81
2021/11/09 12:57:22;;;;;;;19.30;10.27;;;;;;;10.00;100.00;100580.02;4246769;82;28502;-80
2021/11/09 13:03:35;;;;;;;19.48;10.23;;;;;;;9.92;100.00;100574.75;4276012;81;28507;-82
2021/11/09 13:09:43;;;;;;;19.52;10.40;;;;;;;9.89;100.00;100573.80;4213982;83;28557;-83
2021/11/09 13:15:42;;;;;;;15.15;9.65;;;;;;;9.95;100.00;100577.58;4184623;83;28482;-81
2021/11/09 13:21:52;;;;;;;16.75;9.38;;;;;;;10.11;100.00;100580.05;4191785;84;28510;-83
2021/11/09 13:27:48;;;;;;;19.75;10.05;;;;;;;10.23;100.00;100579.55;4142729;84;28496;-81
2021/11/09 13:33:50;;;;;;;18.40;10.28;;;;;;;10.19;100.00;100576.41;4081562;85;28479;-81
2021/11/09 13:40:03;;;;;;;20.23;10.82;;;;;;;10.29;100.00;100579.61;4200152;83;28531;-79
2021/11/09 13:48:54;;;;;;;17.05;9.30;;;;;;;10.08;100.00;100588.47;4605368;76;70276;-84
2021/11/09 13:54:56;;;;;;;15.43;9.18;;;;;;;10.07;100.00;100600.77;4508181;77;28474;-82
2021/11/09 14:01:02;;;;;;;17.42;9.55;;;;;;;10.01;100.00;100605.86;4509394;77;28577;-81
2021/11/09 14:07:43;;;;;;;15.93;9.13;;;;;;;9.83;100.00;100605.42;4500334;77;35972;-81
2021/11/09 14:20:20;;;;;;;14.43;8.60;;;;;;;9.67;100.00;100615.37;4497627;77;28492;-82
2021/11/09 14:26:27;;;;;;;15.55;8.95;;;;;;;9.62;100.00;100628.50;4504574;76;28488;-79
2021/11/09 14:32:34;;;;;;;15.90;8.50;;;;;;;9.57;100.00;100633.61;4516397;77;28505;-79
2021/11/09 14:38:35;;;;;;;;;;;;;;;9.59;100.00;100627.55;4513359;77;28521;-84
2021/11/09 14:45:25;;;;;;;17.62;9.43;;;;;;;9.52;100.00;100622.08;4507956;77;20195;-81
2021/11/09 14:51:28;;;;;;;17.40;8.13;;;;;;;9.43;100.00;100618.67;4511125;76;28547;-79
2021/11/09 14:57:20;;;;;;;15.03;7.72;;;;;;;9.32;100.00;100623.13;4521174;77;28478;-80
2021/11/09 15:03:21;;;;;;;14.20;7.35;;;;;;;9.19;100.00;100631.30;4534724;77;28564;-81
2021/11/09 15:09:39;;;;;;;14.78;8.20;;;;;;;9.09;100.00;100634.75;4514876;77;28505;-81
2021/11/09 15:28:17;;;;;;;13.58;7.00;;;;;;;8.50;100.00;100639.75;4542006;77;28510;-81
2021/11/09 15:40:27;;;;;;;13.93;6.40;;;;;;;8.14;100.00;100644.30;4472580;78;28502;-84
2021/11/09 15:46:29;;;;;;;17.05;7.40;;;;;;;7.95;100.00;100645.05;4522348;78;28566;-81
2021/11/09 15:52:35;;;;;;;15.58;8.18;;;;;;;7.88;100.00;100656.12;4532711;78;28486;-83
2021/11/09 15:58:40;;;;;;;16.67;7.80;;;;;;;7.65;100.00;100654.68;4554252;77;28454;-84
2021/11/09 16:04:43;;;;;;;15.00;7.10;;;;;;;7.50;100.00;100656.73;4481164;78;28494;-79
2021/11/09 16:10:46;;;;;;;11.60;6.47;;;;;;;7.36;100.00;100657.45;4471710;78;28588;-78
2021/11/09 16:16:48;;;;;;;13.53;7.30;;;;;;;7.00;100.00;100657.31;4485682;78;28474;-81
2021/11/09 16:22:50;;;;;;;17.42;8.75;;;;;;;6.80;100.00;100667.00;4489277;78;28466;-77
2021/11/09 16:28:52;;;;;;;18.52;8.53;;;;;;;6.64;100.00;100677.66;4494728;77;28456;-78
2021/11/09 16:34:58;;;;;;;15.13;6.67;;;;;;;6.56;100.00;100674.48;4477021;78;28516;-79
2021/11/09 16:41:05;;;;;;;22.35;8.38;;;;;;;6.33;100.00;100688.47;4506353;78;28467;-78
2021/11/09 16:47:10;;;;;;;14.83;7.30;;;;;;;6.45;100.00;100694.84;4556343;77;28475;-78
2021/11/09 16:53:16;;;;;;;12.70;6.83;;;;;;;6.27;100.00;100690.44;4463465;78;28476;-82
2021/11/09 16:59:38;;;;;;;16.60;8.70;;;;;;;6.19;100.00;100697.92;4439435;80;28446;-84
2021/11/09 17:05:51;;;;;;;19.37;10.72;;;;;;;6.12;100.00;100704.42;4429835;78;28445;-86
2021/11/09 18:14:30;;;;;;;24.18;11.55;;;;;;;5.03;100.00;100754.02;4366291;81;28513;-78
2021/11/09 18:20:22;;;;;;;22.42;12.00;;;;;;;4.86;100.00;100755.69;4321849;81;28487;-78
2021/11/09 18:26:23;;;;;;;20.43;11.53;;;;;;;4.77;100.00;100755.77;4317308;82;28529;-77
2021/11/09 18:32:28;;;;;;;22.30;12.47;;;;;;;4.56;100.00;100768.36;4317665;81;28463;-78
2021/11/09 18:38:29;;;;;;;21.40;11.85;;;;;;;4.50;100.00;100780.95;4369051;81;28518;-75
2021/11/09 18:44:35;;;;;;;21.75;10.65;;;;;;;4.37;100.00;100775.11;4324096;80;28500;-77
2021/11/09 18:50:39;;;;;;;20.12;10.60;;;;;;;4.26;100.00;100766.33;4321236;82;28514;-78
2021/11/09 18:56:41;;;;;;;16.15;9.25;;;;;;;4.16;100.00;100773.04;4321125;82;28456;-75
2021/11/09 19:02:43;;;;;;;19.30;10.55;;;;;;;4.15;100.00;100773.17;4321044;82;28472;-76
2021/11/09 19:08:45;;;;;;;23.67;10.93;;;;;;;3.89;100.00;100776.49;4320636;81;28495;-74
2021/11/09 19:14:50;;;;;;;21.90;10.78;;;;;;;3.74;100.00;100778.77;4320657;82;28476;-76
2021/11/09 19:20:51;;;;;;;21.57;10.70;;;;;;;3.67;100.00;100787.82;4321310;82;47290;-76
2021/11/09 19:26:53;;;;;;;20.85;10.40;;;;;;;3.59;100.00;100795.19;4321007;82;28487;-77
2021/11/09 19:32:58;;;;;;;22.13;11.45;;;;;;;3.66;100.00;100795.93;4320872;82;28448;-76
2021/11/09 19:39:01;;;;;;;23.80;11.83;;;;;;;3.58;100.00;100800.13;4320463;82;28557;-75
2021/11/09 19:45:14;;;;;;;22.95;12.35;;;;;;;3.50;100.00;100796.03;4353007;80;28502;-76
2021/11/09 19:51:18;;;;;;;26.12;12.70;;;;;;;3.30;100.00;100812.47;4324880;81;28490;-79
2021/11/09 19:57:20;;;;;;;26.17;13.13;;;;;;;3.33;100.00;100822.34;4323621;81;28530;-77
2021/11/09 20:03:25;;;;;;;22.40;12.28;;;;;;;3.21;100.00;100826.94;4374587;81;28522;-81
2021/11/09 20:09:27;;;;;;;32.27;15.63;;;;;;;3.17;100.00;100827.35;4514864;79;28482;-79
2021/11/09 20:15:31;;;;;;;31.05;16.82;;;;;;;3.14;100.00;100832.48;4389156;79;28507;-80
2021/11/09 20:21:37;;;;;;;29.82;17.42;;;;;;;3.01;100.00;100828.74;4363933;80;28503;-78
2021/11/09 20:27:40;;;;;;;29.55;15.45;;;;;;;2.84;100.00;100830.73;4394083;81;28487;-77
2021/11/09 20:33:42;;;;;;;34.45;18.17;;;;;;;2.73;100.00;100828.53;4324428;82;28477;-77
2021/11/09 20:39:44;;;;;;;36.53;17.95;;;;;;;2.85;100.00;100830.60;4361253;81;28579;-79
2021/11/09 20:45:46;;;;;;;32.23;15.20;;;;;;;2.78;100.00;100832.11;4351519;79;28501;-78
2021/11/09 20:51:48;;;;;;;32.38;18.52;;;;;;;2.76;100.00;100828.76;4368304;80;28520;-78
2021/11/09 20:57:51;;;;;;;36.95;18.07;;;;;;;2.78;100.00;100837.42;4422906;80;28426;-77
2021/11/09 21:03:53;;;;;;;42.08;20.20;;;;;;;2.61;100.00;100832.27;4454585;79;28517;-77
2021/11/09 21:09:54;;;;;;;33.60;17.07;;;;;;;2.56;100.00;100835.33;4326293;79;28518;-75
2021/11/09 21:22:16;;;;;;;37.23;19.45;;;;;;;2.43;100.00;100826.27;4493099;79;28591;-76
2021/11/09 21:28:18;;;;;;;35.95;18.40;;;;;;;2.55;100.00;100831.47;4479286;79;28536;-77
2021/11/09 21:40:40;;;;;;;41.58;20.52;;;;;;;2.67;100.00;100823.78;4363169;82;28512;-76
2021/11/09 21:46:45;;;;;;;37.25;19.52;;;;;;;2.67;100.00;100811.83;4365069;81;28466;-76
2021/11/09 21:52:48;;;;;;;37.30;19.83;;;;;;;2.69;100.00;100811.67;4374041;81;28506;-74
2021/11/09 21:58:49;;;;;;;35.35;18.98;;;;;;;2.57;100.00;100797.69;4373651;81;28494;-77
2021/11/09 22:04:51;;;;;;;38.88;19.27;;;;;;;2.60;100.00;100782.80;4373014;81;28506;-78
2021/11/09 22:10:52;;;;;;;37.55;20.77;;;;;;;2.51;100.00;100771.19;4373011;81;28506;-78
2021/11/09 22:16:56;;;;;;;41.63;20.25;;;;;;;2.53;100.00;100789.61;4432674;80;28498;-75
2021/11/09 22:22:58;;;;;;;35.65;19.02;;;;;;;2.71;100.00;100782.68;4433585;80;28450;-77
2021/11/09 22:28:59;;;;;;;34.45;19.00;;;;;;;2.54;100.00;100769.58;4435378;80;28525;-77
2021/11/09 22:35:01;;;;;;;31.82;17.00;;;;;;;2.54;100.00;100758.09;4432521;80;28500;-76
2021/11/09 22:41:03;;;;;;;29.70;16.30;;;;;;;2.41;100.00;100753.88;4441457;80;28475;-77
2021/11/09 22:47:04;;;;;;;28.32;14.87;;;;;;;2.68;100.00;100743.13;4451990;79;28497;-76
2021/11/09 22:53:06;;;;;;;30.10;16.45;;;;;;;2.46;100.00;100733.09;4453776;80;28469;-77
2021/11/09 22:59:08;;;;;;;34.60;17.62;;;;;;;2.45;100.00;100733.22;4425561;80;28567;-78
2021/11/09 23:05:09;;;;;;;30.20;16.42;;;;;;;2.36;100.00;100721.61;4453436;79;28527;-77
2021/11/09 23:11:11;;;;;;;30.35;15.85;;;;;;;2.18;100.00;100718.73;4452636;79;28465;-76
2021/11/09 23:17:13;;;;;;;31.40;17.25;;;;;;;2.10;100.00;100696.86;4372533;81;28489;-77
2021/11/09 23:23:14;;;;;;;30.43;15.98;;;;;;;2.22;100.00;100666.58;4500028;79;28424;-76
2021/11/09 23:29:16;;;;;;;36.80;18.35;;;;;;;2.26;100.00;100670.31;4476582;79;28501;-77
2021/11/09 23:35:18;;;;;;;37.55;18.57;;;;;;;2.23;100.00;100674.89;4425512;79;28429;-77
2021/11/09 23:41:20;;;;;;;30.97;16.77;;;;;;;2.20;100.00;100678.33;4395639;81;28510;-77
2021/11/09 23:47:21;;;;;;;33.40;16.48;;;;;;;2.35;100.00;100688.08;4431952;80;28484;-79
2021/11/09 23:53:23;;;;;;;29.77;16.00;;;;;;;2.09;100.00;100672.16;4436003;80;28566;-76
2021/11/09 23:59:26;;;;;;;34.95;16.93;;;;;;;1.99;100.00;100665.13;4450396;80;28460;-78
